createdAt,value
2022-07-29T00:01:19.661Z,20.17
2022-07-29T00:02:51.558Z,20.19
2022-07-29T00:04:23.194Z,20.13
2022-07-29T00:05:55.040Z,20.06
2022-07-29T00:07:26.860Z,19.97
2022-07-29T00:08:58.663Z,19.89
2022-07-29T00:10:30.403Z,19.81
2022-07-29T00:12:02.174Z,19.79
2022-07-29T00:13:33.743Z,19.82
2022-07-29T00:15:05.699Z,19.92
2022-07-29T00:16:37.308Z,20.02
2022-07-29T00:18:08.932Z,20.11
2022-07-29T00:19:43.800Z,20.17
2022-07-29T00:21:17.237Z,20.22
2022-07-29T00:22:49.229Z,20.21
2022-07-29T00:24:20.882Z,20.25
2022-07-29T00:25:52.494Z,20.27
2022-07-29T00:27:25.949Z,20.28
2022-07-29T00:29:23.685Z,20.32
2022-07-29T00:30:49.194Z,20.31
2022-07-29T00:32:20.797Z,20.30
2022-07-29T00:33:52.359Z,20.27
2022-07-29T00:35:42.872Z,20.26
2022-07-29T00:37:14.611Z,20.28
2022-07-29T00:38:47.242Z,20.28
2022-07-29T00:40:18.825Z,20.27
2022-07-29T00:41:55.387Z,20.25
2022-07-29T00:43:27.052Z,20.22
2022-07-29T00:44:58.659Z,20.17
2022-07-29T00:46:30.336Z,20.12
2022-07-29T00:48:02.249Z,20.08
2022-07-29T00:49:34.051Z,20.02
2022-07-29T00:51:06.093Z,19.96
2022-07-29T00:52:38.592Z,19.90
2022-07-29T00:54:10.690Z,19.83
2022-07-29T00:55:42.245Z,19.80
2022-07-29T00:57:14.068Z,19.79
2022-07-29T00:58:46.878Z,19.77
2022-07-29T01:00:21.955Z,19.76
2022-07-29T01:01:53.777Z,19.71
2022-07-29T01:03:25.462Z,19.66
2022-07-29T01:04:58.137Z,19.65
2022-07-29T01:06:29.838Z,19.66
2022-07-29T01:08:01.536Z,19.65
2022-07-29T01:09:42.950Z,19.61
2022-07-29T01:11:18.607Z,19.57
2022-07-29T01:12:50.617Z,19.57
2022-07-29T01:14:22.246Z,19.57
2022-07-29T01:15:58.109Z,19.56
2022-07-29T01:17:29.887Z,19.57
2022-07-29T01:19:09.303Z,19.53
2022-07-29T01:20:53.066Z,19.49
2022-07-29T01:22:43.630Z,19.48
2022-07-29T01:24:33.430Z,19.46
2022-07-29T01:26:23.897Z,19.44
2022-07-29T01:28:16.028Z,19.42
2022-07-29T01:29:58.625Z,19.43
2022-07-29T01:31:38.555Z,19.39
2022-07-29T01:33:47.231Z,19.34
2022-07-29T01:35:20.522Z,19.32
2022-07-29T01:36:53.991Z,19.27
2022-07-29T01:38:26.141Z,19.27
2022-07-29T01:39:58.580Z,19.27
2022-07-29T01:41:31.354Z,19.28
2022-07-29T01:43:04.440Z,19.29
2022-07-29T01:44:37.167Z,19.29
2022-07-29T01:46:10.819Z,19.34
2022-07-29T01:48:11.676Z,19.36
2022-07-29T01:49:44.779Z,19.40
2022-07-29T01:51:20.408Z,19.43
2022-07-29T01:52:57.241Z,19.43
2022-07-29T01:54:49.956Z,19.40
2022-07-29T01:56:21.584Z,19.39
2022-07-29T01:57:53.256Z,19.40
2022-07-29T01:59:24.881Z,19.38
2022-07-29T02:00:57.395Z,19.32
2022-07-29T02:02:29.272Z,19.29
2022-07-29T02:04:01.097Z,19.28
2022-07-29T02:05:32.646Z,19.31
2022-07-29T02:07:06.076Z,19.30
2022-07-29T02:08:37.792Z,19.31
2022-07-29T02:10:09.572Z,19.31
2022-07-29T02:11:41.574Z,19.32
2022-07-29T02:13:13.138Z,19.33
2022-07-29T02:14:49.328Z,19.33
2022-07-29T02:16:21.344Z,19.32
2022-07-29T02:17:55.533Z,19.35
2022-07-29T02:19:27.235Z,19.35
2022-07-29T02:20:59.946Z,19.35
2022-07-29T02:22:31.838Z,19.38
2022-07-29T02:24:03.835Z,19.39
2022-07-29T02:25:37.677Z,19.38
2022-07-29T02:27:10.158Z,19.38
2022-07-29T02:28:41.732Z,19.37
2022-07-29T02:30:16.036Z,19.35
2022-07-29T02:31:50.885Z,19.34
2022-07-29T02:33:25.437Z,19.32
2022-07-29T02:35:00.913Z,19.32
2022-07-29T02:36:36.105Z,19.28
2022-07-29T02:38:30.163Z,19.21
2022-07-29T02:40:02.173Z,19.19
2022-07-29T02:41:38.648Z,19.17
2022-07-29T02:43:10.253Z,19.17
2022-07-29T02:44:41.903Z,19.18
2022-07-29T02:46:29.304Z,19.13
2022-07-29T02:48:01.584Z,19.10
2022-07-29T02:49:35.819Z,19.08
2022-07-29T02:51:13.476Z,19.08
2022-07-29T02:53:08.916Z,19.07
2022-07-29T02:54:40.605Z,19.07
2022-07-29T02:56:12.855Z,19.06
2022-07-29T02:57:54.819Z,19.07
2022-07-29T02:59:28.234Z,19.06
2022-07-29T03:01:01.202Z,19.03
2022-07-29T03:02:35.924Z,19.04
2022-07-29T03:04:07.629Z,19.00
2022-07-29T03:05:39.217Z,19.02
2022-07-29T03:07:11.276Z,18.99
2022-07-29T03:08:42.874Z,18.97
2022-07-29T03:10:14.590Z,19.00
2022-07-29T03:11:49.972Z,19.00
2022-07-29T03:13:22.593Z,18.99
2022-07-29T03:14:54.744Z,19.00
2022-07-29T03:16:26.490Z,18.97
2022-07-29T03:17:58.195Z,18.94
2022-07-29T03:19:29.860Z,18.91
2022-07-29T03:21:01.574Z,18.93
2022-07-29T03:22:33.251Z,18.92
2022-07-29T03:24:10.100Z,18.91
2022-07-29T03:25:42.349Z,18.91
2022-07-29T03:27:14.207Z,18.90
2022-07-29T03:28:45.987Z,18.91
2022-07-29T03:30:22.154Z,18.91
2022-07-29T03:31:54.292Z,18.89
2022-07-29T03:33:27.166Z,18.89
2022-07-29T03:34:59.508Z,18.89
2022-07-29T03:36:31.155Z,18.86
2022-07-29T03:38:02.833Z,18.84
2022-07-29T03:39:35.987Z,18.81
2022-07-29T03:41:09.030Z,18.81
2022-07-29T03:42:41.441Z,18.82
2022-07-29T03:44:15.946Z,18.80
2022-07-29T03:45:49.361Z,18.81
2022-07-29T03:47:23.497Z,18.85
2022-07-29T03:49:16.182Z,18.81
2022-07-29T03:50:47.858Z,18.78
2022-07-29T03:52:19.419Z,18.77
2022-07-29T03:53:51.208Z,18.74
2022-07-29T03:55:23.119Z,18.72
2022-07-29T03:56:55.022Z,18.68
2022-07-29T03:58:27.631Z,18.75
2022-07-29T03:59:59.414Z,18.81
2022-07-29T04:01:32.048Z,18.90
2022-07-29T04:03:04.283Z,18.94
2022-07-29T04:04:36.134Z,18.98
2022-07-29T04:06:07.991Z,19.05
2022-07-29T04:07:39.534Z,19.11
2022-07-29T04:09:11.312Z,19.18
2022-07-29T04:10:43.102Z,19.30
2022-07-29T04:12:14.889Z,19.38
2022-07-29T04:13:46.584Z,19.47
2022-07-29T04:15:19.361Z,19.55
2022-07-29T04:16:50.907Z,19.62
2022-07-29T04:18:23.141Z,19.69
2022-07-29T04:19:54.691Z,19.69
2022-07-29T04:21:26.343Z,19.73
2022-07-29T04:22:58.238Z,19.81
2022-07-29T04:24:30.398Z,19.86
2022-07-29T04:26:02.364Z,19.85
2022-07-29T04:27:34.394Z,19.86
2022-07-29T04:29:05.963Z,19.83
2022-07-29T04:30:38.288Z,19.89
2022-07-29T04:32:10.150Z,19.99
2022-07-29T04:33:42.010Z,20.12
2022-07-29T04:35:14.061Z,20.18
2022-07-29T04:36:45.923Z,20.23
2022-07-29T04:38:17.587Z,20.31
2022-07-29T04:39:49.661Z,20.36
2022-07-29T04:41:21.803Z,20.44
2022-07-29T04:42:54.343Z,20.52
2022-07-29T04:44:28.761Z,20.61
2022-07-29T04:46:01.606Z,20.71
2022-07-29T04:47:33.485Z,20.78
2022-07-29T04:49:05.430Z,20.85
2022-07-29T04:50:39.560Z,20.91
2022-07-29T04:52:11.273Z,21.02
2022-07-29T04:53:43.046Z,21.11
2022-07-29T04:55:14.879Z,21.18
2022-07-29T04:56:47.604Z,21.17
2022-07-29T04:58:19.804Z,21.19
2022-07-29T04:59:51.402Z,21.17
2022-07-29T05:01:23.031Z,21.17
2022-07-29T05:02:55.134Z,21.20
2022-07-29T05:04:27.018Z,21.24
2022-07-29T05:05:58.671Z,21.24
2022-07-29T05:07:31.262Z,21.23
2022-07-29T05:09:03.706Z,21.22
2022-07-29T05:10:39.343Z,21.22
2022-07-29T05:12:11.015Z,21.26
2022-07-29T05:13:45.809Z,21.28
2022-07-29T05:15:18.852Z,21.34
2022-07-29T05:16:52.250Z,21.45
2022-07-29T05:18:26.184Z,21.50
2022-07-29T05:19:58.034Z,21.60
2022-07-29T05:21:29.773Z,21.71
2022-07-29T05:23:01.681Z,21.83
2022-07-29T05:24:33.496Z,21.87
2022-07-29T05:26:05.276Z,22.01
2022-07-29T05:27:38.372Z,22.11
2022-07-29T05:29:42.530Z,22.07
2022-07-29T05:31:01.773Z,22.23
2022-07-29T05:32:33.468Z,22.34
2022-07-29T05:34:05.081Z,22.26
2022-07-29T05:35:38.236Z,22.28
2022-07-29T05:37:10.056Z,22.17
2022-07-29T05:38:42.058Z,22.10
2022-07-29T05:40:13.870Z,22.17
2022-07-29T05:41:50.116Z,22.19
2022-07-29T05:43:24.257Z,22.31
2022-07-29T05:44:56.201Z,22.41
2022-07-29T05:46:28.016Z,22.42
2022-07-29T05:47:59.701Z,22.39
2022-07-29T05:49:31.597Z,22.46
2022-07-29T05:51:03.407Z,22.59
2022-07-29T05:52:35.143Z,22.67
2022-07-29T05:54:07.044Z,22.81
2022-07-29T05:55:38.735Z,22.99
2022-07-29T05:57:20.753Z,23.11
2022-07-29T05:58:52.596Z,23.04
2022-07-29T06:00:24.867Z,23.02
2022-07-29T06:01:58.269Z,23.18
2022-07-29T06:03:30.360Z,23.33
2022-07-29T06:05:02.429Z,23.51
2022-07-29T06:06:34.827Z,23.62
2022-07-29T06:08:09.568Z,23.72
2022-07-29T06:09:41.460Z,23.83
2022-07-29T06:11:19.813Z,23.84
2022-07-29T06:12:55.265Z,23.82
2022-07-29T06:22:38.469Z,23.97
2022-07-29T06:24:11.625Z,23.98
2022-07-29T06:25:43.508Z,23.88
2022-07-29T06:27:15.299Z,23.97
2022-07-29T06:28:47.023Z,24.03
2022-07-29T06:30:18.947Z,24.02
2022-07-29T06:31:50.848Z,24.06
2022-07-29T06:33:22.960Z,24.15
2022-07-29T06:35:06.907Z,24.22
2022-07-29T06:36:46.423Z,24.29
2022-07-29T06:38:31.041Z,24.29
2022-07-29T06:40:24.272Z,24.37
2022-07-29T06:41:55.976Z,24.61
2022-07-29T06:43:32.820Z,24.72
2022-07-29T06:45:09.225Z,24.77
2022-07-29T06:46:41.134Z,24.72
2022-07-29T06:48:13.467Z,24.66
2022-07-29T06:49:47.537Z,24.74
2022-07-29T06:51:22.833Z,24.89
2022-07-29T06:52:55.548Z,24.92
2022-07-29T06:54:27.406Z,25.03
2022-07-29T06:56:02.425Z,25.25
2022-07-29T06:57:34.679Z,25.36
2022-07-29T06:59:07.492Z,25.54
2022-07-29T07:00:39.871Z,25.75
2022-07-29T07:02:11.672Z,25.82
2022-07-29T07:03:43.540Z,25.90
2022-07-29T07:05:16.719Z,26.09
2022-07-29T07:06:48.633Z,26.24
2022-07-29T07:08:20.650Z,26.38
2022-07-29T07:09:52.333Z,26.59
2022-07-29T07:11:24.056Z,26.64
2022-07-29T07:12:58.615Z,26.58
2022-07-29T07:14:34.207Z,26.53
2022-07-29T07:16:09.427Z,26.49
2022-07-29T07:23:02.311Z,26.37
2022-07-29T07:24:35.122Z,26.28
2022-07-29T07:26:09.095Z,26.25
2022-07-29T07:27:41.214Z,26.32
2022-07-29T07:29:15.982Z,26.48
2022-07-29T07:30:48.740Z,26.72
2022-07-29T07:32:21.109Z,26.86
2022-07-29T07:33:54.715Z,27.02
2022-07-29T07:35:27.888Z,27.23
2022-07-29T07:37:00.360Z,27.45
2022-07-29T07:38:32.901Z,27.65
2022-07-29T07:40:05.469Z,27.66
2022-07-29T07:41:37.450Z,27.78
2022-07-29T07:43:09.218Z,27.83
2022-07-29T07:45:03.770Z,27.96
2022-07-29T07:46:34.224Z,27.92
2022-07-29T07:48:06.899Z,27.98
2022-07-29T07:49:39.108Z,27.97
2022-07-29T07:51:13.830Z,27.95
2022-07-29T07:52:51.547Z,28.06
2022-07-29T07:54:23.599Z,28.12
2022-07-29T07:56:12.827Z,28.04
2022-07-29T07:57:50.630Z,28.08
2022-07-29T07:59:23.145Z,28.12
2022-07-29T08:01:01.902Z,28.09
2022-07-29T08:02:37.610Z,28.24
2022-07-29T08:04:13.654Z,28.50
2022-07-29T08:10:56.960Z,28.73
2022-07-29T08:12:29.622Z,28.76
2022-07-29T08:14:02.512Z,28.80
2022-07-29T08:15:34.893Z,29.02
2022-07-29T08:17:07.024Z,29.21
2022-07-29T08:18:39.853Z,29.33
2022-07-29T08:20:11.999Z,29.44
2022-07-29T08:21:43.970Z,29.58
2022-07-29T08:23:15.797Z,29.59
2022-07-29T08:24:54.869Z,29.57
2022-07-29T08:26:27.709Z,29.55
2022-07-29T08:27:59.755Z,29.55
2022-07-29T08:29:31.756Z,29.68
2022-07-29T08:31:09.918Z,29.78
2022-07-29T08:32:54.162Z,29.93
2022-07-29T08:41:13.312Z,30.19
2022-07-29T08:42:45.417Z,30.28
2022-07-29T08:44:18.554Z,30.43
2022-07-29T08:45:59.738Z,30.45
2022-07-29T08:47:32.289Z,30.42
2022-07-29T08:49:05.023Z,30.41
2022-07-29T08:50:37.502Z,30.39
2022-07-29T08:52:10.682Z,30.40
2022-07-29T08:53:46.515Z,30.48
2022-07-29T08:55:21.413Z,30.50
2022-07-29T08:56:54.915Z,30.46
2022-07-29T08:58:28.082Z,30.43
2022-07-29T09:00:02.545Z,30.34
2022-07-29T09:01:42.925Z,30.24
2022-07-29T09:03:17.899Z,30.37
2022-07-29T09:04:50.169Z,30.39
2022-07-29T09:06:22.802Z,30.23
2022-07-29T09:07:54.766Z,30.22
2022-07-29T09:09:26.370Z,30.12
2022-07-29T09:11:01.217Z,30.17
2022-07-29T09:12:38.211Z,30.24
2022-07-29T09:14:11.135Z,30.40
2022-07-29T09:15:42.956Z,30.62
2022-07-29T09:17:16.460Z,30.83
2022-07-29T09:18:48.314Z,30.79
2022-07-29T09:20:21.329Z,30.65
2022-07-29T09:21:59.516Z,30.56
2022-07-29T09:23:31.205Z,30.60
2022-07-29T09:25:03.091Z,30.73
2022-07-29T09:26:36.028Z,30.85
2022-07-29T09:28:09.169Z,30.98
2022-07-29T09:29:41.063Z,31.11
2022-07-29T09:31:13.192Z,31.18
2022-07-29T09:32:58.002Z,31.20
2022-07-29T09:34:32.531Z,31.19
2022-07-29T09:36:08.466Z,31.15
2022-07-29T09:37:40.697Z,31.16
2022-07-29T09:39:12.522Z,31.37
2022-07-29T09:40:45.350Z,31.45
2022-07-29T09:42:18.378Z,31.47
2022-07-29T09:43:57.384Z,31.65
2022-07-29T09:45:33.073Z,31.72
2022-07-29T09:47:08.256Z,31.68
2022-07-29T09:48:40.221Z,31.77
2022-07-29T09:50:12.556Z,31.97
2022-07-29T09:51:45.885Z,32.22
2022-07-29T09:53:34.266Z,32.34
2022-07-29T09:55:06.835Z,32.42
2022-07-29T09:56:42.104Z,32.58
2022-07-29T09:58:17.728Z,32.59
2022-07-29T09:59:59.645Z,32.41
2022-07-29T10:01:31.919Z,32.23
2022-07-29T10:03:06.038Z,32.23
2022-07-29T10:04:39.496Z,32.20
2022-07-29T10:06:11.782Z,32.18
2022-07-29T10:07:50.566Z,32.23
2022-07-29T10:09:25.932Z,32.14
2022-07-29T10:11:09.508Z,32.22
2022-07-29T10:12:51.173Z,32.28
2022-07-29T10:14:22.879Z,32.35
2022-07-29T10:15:54.916Z,32.45
2022-07-29T10:17:27.261Z,32.47
2022-07-29T10:18:59.371Z,32.47
2022-07-29T10:20:31.307Z,32.64
2022-07-29T10:22:04.434Z,32.78
2022-07-29T10:23:46.449Z,32.95
2022-07-29T10:25:19.252Z,32.97
2022-07-29T10:26:51.314Z,32.75
2022-07-29T10:28:26.872Z,32.89
2022-07-29T10:29:59.173Z,33.08
2022-07-29T10:31:40.882Z,33.27
2022-07-29T10:33:32.141Z,33.34
2022-07-29T10:35:13.672Z,33.35
2022-07-29T10:36:48.907Z,33.38
2022-07-29T10:38:46.068Z,33.27
2022-07-29T10:40:45.117Z,33.26
2022-07-29T10:42:29.832Z,33.27
2022-07-29T10:44:16.100Z,33.30
2022-07-29T10:45:50.220Z,33.15
2022-07-29T10:47:23.311Z,33.11
2022-07-29T10:49:15.211Z,33.08
2022-07-29T10:51:04.187Z,32.94
2022-07-29T10:52:52.617Z,32.78
2022-07-29T10:54:44.673Z,32.81
2022-07-29T10:56:35.064Z,32.83
2022-07-29T10:58:26.480Z,32.97
2022-07-29T11:00:10.604Z,33.01
2022-07-29T11:01:46.401Z,33.08
2022-07-29T11:03:40.855Z,33.22
2022-07-29T11:05:32.279Z,33.25
2022-07-29T11:07:13.513Z,33.44
2022-07-29T11:08:47.058Z,33.55
2022-07-29T11:10:20.257Z,33.53
2022-07-29T11:11:52.168Z,33.57
2022-07-29T11:13:43.231Z,33.60
2022-07-29T11:15:18.781Z,33.66
2022-07-29T11:17:00.402Z,33.68
2022-07-29T11:18:32.046Z,33.77
2022-07-29T11:20:27.065Z,33.83
2022-07-29T11:21:59.828Z,33.95
2022-07-29T11:23:33.482Z,33.89
2022-07-29T11:25:16.591Z,33.70
2022-07-29T11:27:10.470Z,33.68
2022-07-29T11:28:51.111Z,33.70
2022-07-29T11:30:29.898Z,33.67
2022-07-29T11:32:18.139Z,33.42
2022-07-29T11:33:56.386Z,33.41
2022-07-29T11:35:37.865Z,33.46
2022-07-29T11:37:12.938Z,33.64
2022-07-29T11:38:45.218Z,33.88
2022-07-29T11:40:17.315Z,34.02
2022-07-29T11:41:50.059Z,34.15
2022-07-29T11:43:44.890Z,34.24
2022-07-29T11:45:43.739Z,34.38
2022-07-29T11:47:13.571Z,34.57
2022-07-29T11:48:46.604Z,34.71
2022-07-29T11:50:36.364Z,34.76
2022-07-29T11:52:08.366Z,34.77
2022-07-29T11:53:47.861Z,34.83
2022-07-29T11:55:24.537Z,34.86
2022-07-29T11:57:04.430Z,34.85
2022-07-29T11:58:36.276Z,34.92
2022-07-29T12:00:12.593Z,35.00
2022-07-29T12:02:18.364Z,35.07
2022-07-29T12:03:51.427Z,35.10
2022-07-29T12:07:02.572Z,35.16
2022-07-29T12:07:32.658Z,35.30
2022-07-29T12:09:11.301Z,35.20
2022-07-29T12:10:48.303Z,35.01
2022-07-29T12:12:20.665Z,34.77
2022-07-29T12:13:56.377Z,34.68
2022-07-29T12:15:45.682Z,34.64
2022-07-29T12:17:30.489Z,34.62
2022-07-29T12:19:04.066Z,34.69
2022-07-29T12:20:35.805Z,34.66
2022-07-29T12:22:08.788Z,34.60
2022-07-29T12:23:40.750Z,34.48
2022-07-29T12:25:32.602Z,34.42
2022-07-29T12:27:05.338Z,34.45
2022-07-29T12:28:41.022Z,34.54
2022-07-29T12:30:13.821Z,34.57
2022-07-29T12:31:57.966Z,34.61
2022-07-29T12:33:30.750Z,34.51
2022-07-29T12:35:06.250Z,34.35
2022-07-29T12:36:38.284Z,34.17
2022-07-29T12:38:10.955Z,34.19
2022-07-29T12:39:42.777Z,34.14
2022-07-29T12:41:15.523Z,34.19
2022-07-29T12:43:06.051Z,34.40
2022-07-29T12:44:47.727Z,34.55
2022-07-29T12:46:19.890Z,34.62
2022-07-29T12:47:54.437Z,34.59
2022-07-29T12:49:27.500Z,34.44
2022-07-29T12:51:00.971Z,34.39
2022-07-29T12:52:38.441Z,34.41
2022-07-29T12:54:11.837Z,34.52
2022-07-29T12:55:46.056Z,34.65
2022-07-29T12:57:20.089Z,34.69
2022-07-29T12:58:53.719Z,34.77
2022-07-29T13:00:25.518Z,34.81
2022-07-29T13:01:59.168Z,34.85
2022-07-29T13:03:43.109Z,34.95
2022-07-29T13:05:48.695Z,34.94
2022-07-29T13:07:54.121Z,34.86
2022-07-29T13:09:17.206Z,34.86
2022-07-29T13:10:48.992Z,34.96
2022-07-29T13:12:22.393Z,35.05
2022-07-29T13:14:06.523Z,35.03
2022-07-29T13:15:39.761Z,34.93
2022-07-29T13:17:12.396Z,34.91
2022-07-29T13:18:44.107Z,34.91
2022-07-29T13:20:16.372Z,35.03
2022-07-29T13:21:48.051Z,35.07
2022-07-29T13:23:19.802Z,35.01
2022-07-29T13:24:54.379Z,35.01
2022-07-29T13:26:26.134Z,35.00
2022-07-29T13:27:57.992Z,35.03
2022-07-29T13:29:31.753Z,35.03
2022-07-29T13:31:04.779Z,34.94
2022-07-29T13:32:37.620Z,34.87
2022-07-29T13:34:09.654Z,34.87
2022-07-29T13:35:41.616Z,34.85
2022-07-29T13:37:13.570Z,34.85
2022-07-29T13:38:45.617Z,34.82
2022-07-29T13:40:17.348Z,34.67
2022-07-29T13:41:49.358Z,34.64
2022-07-29T13:43:21.416Z,34.64
2022-07-29T13:44:53.465Z,34.71
2022-07-29T13:46:25.403Z,34.77
2022-07-29T13:47:57.931Z,34.82
2022-07-29T13:49:29.936Z,34.85
2022-07-29T13:51:01.602Z,34.87
2022-07-29T13:52:33.696Z,34.96
2022-07-29T13:54:05.895Z,35.01
2022-07-29T13:55:38.039Z,35.05
2022-07-29T13:57:10.105Z,35.14
2022-07-29T13:58:41.800Z,35.29
2022-07-29T14:00:14.153Z,35.39
2022-07-29T14:01:46.154Z,35.45
2022-07-29T14:03:18.536Z,35.48
2022-07-29T14:04:51.377Z,35.45
2022-07-29T14:06:23.772Z,35.44
2022-07-29T14:07:56.445Z,35.38
2022-07-29T14:09:28.378Z,35.32
2022-07-29T14:11:00.550Z,35.25
2022-07-29T14:12:33.635Z,35.15
2022-07-29T14:14:05.857Z,35.05
2022-07-29T14:15:39.296Z,34.98
2022-07-29T14:17:11.966Z,34.92
2022-07-29T14:18:44.175Z,34.90
2022-07-29T14:20:17.097Z,34.82
2022-07-29T14:21:49.537Z,34.79
2022-07-29T14:23:22.043Z,34.80
2022-07-29T14:24:53.814Z,34.79
2022-07-29T14:26:26.296Z,34.73
2022-07-29T14:27:59.184Z,34.65
2022-07-29T14:29:37.054Z,34.47
2022-07-29T14:31:12.810Z,34.33
2022-07-29T14:32:44.526Z,34.22
2022-07-29T14:34:16.710Z,34.10
2022-07-29T14:35:48.897Z,34.05
2022-07-29T14:37:21.038Z,34.05
2022-07-29T14:38:53.615Z,34.12
2022-07-29T14:40:27.070Z,34.22
2022-07-29T14:42:00.352Z,34.34
2022-07-29T14:43:32.346Z,34.34
2022-07-29T14:45:05.133Z,34.23
2022-07-29T14:46:37.432Z,34.06
2022-07-29T14:48:09.334Z,33.99
2022-07-29T14:49:41.080Z,33.88
2022-07-29T14:51:12.946Z,33.78
2022-07-29T14:52:44.961Z,33.76
2022-07-29T14:54:16.759Z,33.73
2022-07-29T14:55:48.687Z,33.76
2022-07-29T14:57:21.063Z,33.77
2022-07-29T14:58:52.846Z,33.79
2022-07-29T15:00:24.564Z,33.87
2022-07-29T15:01:56.987Z,33.97
2022-07-29T15:03:33.781Z,34.01
2022-07-29T15:05:06.267Z,33.98
2022-07-29T15:06:39.091Z,33.92
2022-07-29T15:08:11.101Z,33.84
2022-07-29T15:09:49.887Z,33.78
2022-07-29T15:11:22.028Z,33.71
2022-07-29T15:12:53.856Z,33.69
2022-07-29T15:14:25.684Z,33.65
2022-07-29T15:16:00.218Z,33.65
2022-07-29T15:17:32.417Z,33.61
2022-07-29T15:19:04.702Z,33.54
2022-07-29T15:20:37.226Z,33.40
2022-07-29T15:22:09.368Z,33.33
2022-07-29T15:23:41.077Z,33.25
2022-07-29T15:25:13.221Z,33.22
2022-07-29T15:26:44.992Z,33.23
2022-07-29T15:28:16.616Z,33.19
2022-07-29T15:29:48.230Z,33.09
2022-07-29T15:31:22.924Z,33.02
2022-07-29T15:32:55.982Z,32.97
2022-07-29T15:34:29.606Z,32.88
2022-07-29T15:36:02.173Z,32.80
2022-07-29T15:37:48.354Z,32.74
2022-07-29T15:39:21.514Z,32.68
2022-07-29T15:40:53.172Z,32.62
2022-07-29T15:42:24.795Z,32.58
2022-07-29T15:43:56.713Z,32.55
2022-07-29T15:45:31.972Z,32.50
2022-07-29T15:47:05.139Z,32.40
2022-07-29T15:48:38.782Z,32.26
2022-07-29T15:50:15.822Z,32.16
2022-07-29T15:51:47.788Z,32.14
2022-07-29T15:53:19.950Z,32.13
2022-07-29T15:54:51.918Z,32.13
2022-07-29T15:56:24.266Z,32.11
2022-07-29T15:58:00.486Z,32.07
2022-07-29T15:59:32.943Z,32.04
2022-07-29T16:01:04.656Z,31.96
2022-07-29T16:02:36.546Z,31.95
2022-07-29T16:04:08.620Z,31.92
2022-07-29T16:05:40.655Z,31.80
2022-07-29T16:07:12.582Z,31.74
2022-07-29T16:08:47.004Z,31.66
2022-07-29T16:10:19.369Z,31.57
2022-07-29T16:11:53.891Z,31.49
2022-07-29T16:13:26.398Z,31.45
2022-07-29T16:14:58.942Z,31.38
2022-07-29T16:16:31.189Z,31.28
2022-07-29T16:18:03.085Z,31.20
2022-07-29T16:19:35.159Z,31.18
2022-07-29T16:21:08.276Z,31.15
2022-07-29T16:22:40.081Z,31.11
2022-07-29T16:24:12.266Z,31.03
2022-07-29T16:25:59.323Z,31.00
2022-07-29T16:27:37.472Z,30.94
2022-07-29T16:29:09.637Z,30.87
2022-07-29T16:30:41.584Z,30.83
2022-07-29T16:32:13.402Z,30.81
2022-07-29T16:33:54.176Z,30.79
2022-07-29T16:35:39.243Z,30.71
2022-07-29T16:37:11.622Z,30.64
2022-07-29T16:38:47.229Z,30.56
2022-07-29T16:40:19.119Z,30.55
2022-07-29T16:41:50.915Z,30.50
2022-07-29T16:43:22.723Z,30.47
2022-07-29T16:44:54.593Z,30.47
2022-07-29T16:46:27.009Z,30.44
2022-07-29T16:48:00.973Z,30.44
2022-07-29T16:49:33.113Z,30.46
2022-07-29T16:51:07.813Z,30.49
2022-07-29T16:52:40.113Z,30.48
2022-07-29T16:54:12.095Z,30.39
2022-07-29T16:55:43.722Z,30.26
2022-07-29T16:57:15.432Z,30.17
2022-07-29T16:58:47.339Z,30.07
2022-07-29T17:00:19.081Z,29.97
2022-07-29T17:01:50.846Z,29.92
2022-07-29T17:03:23.037Z,29.86
2022-07-29T17:04:54.973Z,29.78
2022-07-29T17:06:26.746Z,29.73
2022-07-29T17:07:58.789Z,29.70
2022-07-29T17:09:30.957Z,29.63
2022-07-29T17:11:02.828Z,29.56
2022-07-29T17:12:36.887Z,29.55
2022-07-29T17:14:09.165Z,29.54
2022-07-29T17:15:42.722Z,29.48
2022-07-29T17:17:16.673Z,29.45
2022-07-29T17:18:55.776Z,29.41
2022-07-29T17:20:27.777Z,29.33
2022-07-29T17:22:08.376Z,29.30
2022-07-29T17:23:43.882Z,29.26
2022-07-29T17:25:20.706Z,29.20
2022-07-29T17:26:53.067Z,29.14
2022-07-29T17:28:24.967Z,29.11
2022-07-29T17:29:57.033Z,29.11
2022-07-29T17:31:29.064Z,29.07
2022-07-29T17:33:01.104Z,29.02
2022-07-29T17:34:33.015Z,28.97
2022-07-29T17:36:23.287Z,28.89
2022-07-29T17:37:55.018Z,28.85
2022-07-29T17:39:26.669Z,28.82
2022-07-29T17:40:58.522Z,28.79
2022-07-29T17:42:30.263Z,28.79
2022-07-29T17:44:02.063Z,28.76
2022-07-29T17:45:48.765Z,28.68
2022-07-29T17:47:22.276Z,28.60
2022-07-29T17:48:55.807Z,28.57
2022-07-29T17:50:27.686Z,28.56
2022-07-29T17:52:01.073Z,28.46
2022-07-29T17:53:32.949Z,28.43
2022-07-29T17:55:05.114Z,28.38
2022-07-29T17:56:37.322Z,28.34
2022-07-29T17:58:09.491Z,28.28
2022-07-29T17:59:41.271Z,28.19
2022-07-29T18:01:13.428Z,28.10
2022-07-29T18:02:45.291Z,28.02
2022-07-29T18:04:20.428Z,27.99
2022-07-29T18:05:54.828Z,27.96
2022-07-29T18:07:26.803Z,27.95
2022-07-29T18:08:58.656Z,27.91
2022-07-29T18:10:36.318Z,27.88
2022-07-29T18:12:08.551Z,27.83
2022-07-29T18:13:41.663Z,27.78
2022-07-29T18:15:13.810Z,27.76
2022-07-29T18:16:45.684Z,27.70
2022-07-29T18:18:18.586Z,27.63
2022-07-29T18:19:53.214Z,27.61
2022-07-29T18:21:42.667Z,27.56
2022-07-29T18:23:26.526Z,27.53
2022-07-29T18:24:58.616Z,27.50
2022-07-29T18:26:30.513Z,27.47
2022-07-29T18:28:02.337Z,27.45
2022-07-29T18:29:34.175Z,27.45
2022-07-29T18:31:05.887Z,27.43
2022-07-29T18:32:39.772Z,27.41
2022-07-29T18:34:11.435Z,27.38
2022-07-29T18:35:52.437Z,27.34
2022-07-29T18:38:02.311Z,27.30
2022-07-29T18:39:36.646Z,27.24
2022-07-29T18:41:08.259Z,27.19
2022-07-29T18:42:40.992Z,27.18
2022-07-29T18:44:17.133Z,27.18
2022-07-29T18:45:49.819Z,27.11
2022-07-29T18:47:22.174Z,27.07
2022-07-29T18:48:53.870Z,27.04
2022-07-29T18:50:29.598Z,27.03
2022-07-29T18:52:02.259Z,27.01
2022-07-29T18:53:36.841Z,26.99
2022-07-29T18:55:08.922Z,26.98
2022-07-29T18:56:40.834Z,26.98
2022-07-29T18:58:15.483Z,26.96
2022-07-29T18:59:47.203Z,26.93
2022-07-29T19:01:18.879Z,26.91
2022-07-29T19:02:50.855Z,26.90
2022-07-29T19:04:23.019Z,26.90
2022-07-29T19:05:54.786Z,26.88
2022-07-29T19:07:27.065Z,26.87
2022-07-29T19:08:59.191Z,26.87
2022-07-29T19:10:31.136Z,26.87
2022-07-29T19:12:03.803Z,26.83
2022-07-29T19:13:40.416Z,26.80
2022-07-29T19:15:13.094Z,26.76
2022-07-29T19:16:52.231Z,26.75
2022-07-29T19:18:24.455Z,26.77
2022-07-29T19:19:56.321Z,26.74
2022-07-29T19:21:28.468Z,26.71
2022-07-29T19:23:00.215Z,26.68
2022-07-29T19:24:31.879Z,26.71
2022-07-29T19:26:03.555Z,26.71
2022-07-29T19:27:40.593Z,26.71
2022-07-29T19:29:12.721Z,26.69
2022-07-29T19:30:44.396Z,26.65
2022-07-29T19:32:24.990Z,26.65
2022-07-29T19:33:57.261Z,26.62
2022-07-29T19:35:31.609Z,26.57
2022-07-29T19:37:04.119Z,26.56
2022-07-29T19:38:35.841Z,26.55
2022-07-29T19:40:07.959Z,26.55
2022-07-29T19:41:39.770Z,26.56
2022-07-29T19:43:50.586Z,26.57
2022-07-29T19:45:03.497Z,26.58
2022-07-29T19:46:35.264Z,26.60
2022-07-29T19:48:07.364Z,26.58
2022-07-29T19:49:40.855Z,26.57
2022-07-29T19:51:12.665Z,26.55
2022-07-29T19:52:45.401Z,26.48
2022-07-29T19:54:18.499Z,26.48
2022-07-29T19:55:50.275Z,26.47
2022-07-29T19:57:21.997Z,26.47
2022-07-29T19:58:56.471Z,26.47
2022-07-29T20:00:28.691Z,26.46
2022-07-29T20:02:02.021Z,26.46
2022-07-29T20:03:34.020Z,26.43
2022-07-29T20:05:06.220Z,26.37
2022-07-29T20:06:38.016Z,26.37
2022-07-29T20:08:09.570Z,26.42
2022-07-29T20:09:41.599Z,26.42
2022-07-29T20:11:13.432Z,26.38
2022-07-29T20:12:45.967Z,26.39
2022-07-29T20:14:21.080Z,26.36
2022-07-29T20:15:52.725Z,26.34
2022-07-29T20:17:25.110Z,26.34
2022-07-29T20:18:57.191Z,26.36
2022-07-29T20:20:30.051Z,26.33
2022-07-29T20:22:01.873Z,26.31
2022-07-29T20:23:34.040Z,26.33
2022-07-29T20:25:07.239Z,26.33
2022-07-29T20:26:38.966Z,26.33
2022-07-29T20:28:10.806Z,26.32
2022-07-29T20:29:42.817Z,26.33
2022-07-29T20:31:16.871Z,26.31
2022-07-29T20:32:48.738Z,26.28
2022-07-29T20:34:20.512Z,26.25
2022-07-29T20:35:52.813Z,26.24
2022-07-29T20:37:24.423Z,26.23
2022-07-29T20:38:56.492Z,26.20
2022-07-29T20:40:29.559Z,26.20
2022-07-29T20:42:01.256Z,26.19
2022-07-29T20:43:36.082Z,26.17
2022-07-29T20:45:11.278Z,26.13